createdAt,value
2017-02-06T05:31:39.593Z,99.99
2017-02-06T05:32:20.139Z,99.99
2017-02-06T05:33:00.613Z,99.99
2017-02-06T05:33:41.098Z,99.99
2017-02-06T05:34:21.615Z,99.99
2017-02-06T05:35:02.156Z,99.99
2017-02-06T05:35:42.673Z,99.99
2017-02-06T05:36:23.144Z,99.99
2017-02-06T05:37:03.651Z,99.99
2017-02-06T05:37:44.170Z,99.99
2017-02-06T05:38:24.686Z,99.99
2017-02-06T05:39:05.215Z,99.99
2017-02-06T05:39:45.717Z,99.99
2017-02-06T05:40:26.236Z,99.99
2017-02-06T05:41:06.750Z,99.99
2017-02-06T05:41:47.308Z,99.99
2017-02-06T05:42:27.809Z,99.99
2017-02-06T05:43:08.316Z,99.99
2017-02-06T05:43:48.823Z,99.99
2017-02-06T05:44:29.342Z,99.99
2017-02-06T05:45:09.839Z,99.99
2017-02-06T05:45:50.355Z,99.99
2017-02-06T05:46:30.889Z,99.99
2017-02-06T05:47:11.401Z,99.99
2017-02-06T05:47:51.912Z,99.99
2017-02-06T05:48:32.438Z,99.99
2017-02-06T05:49:12.946Z,99.99
2017-02-06T05:49:53.444Z,99.99
2017-02-06T05:50:33.946Z,99.99
2017-02-06T05:51:14.470Z,99.99
2017-02-06T05:51:54.994Z,99.99
2017-02-06T05:52:35.514Z,99.99
2017-02-06T05:53:16.039Z,99.99
2017-02-06T05:53:56.568Z,99.99
2017-02-06T05:54:37.075Z,99.99
2017-02-06T05:55:17.597Z,99.99
2017-02-06T05:55:58.094Z,99.99
2017-02-06T05:56:38.636Z,99.99
2017-02-06T05:57:19.118Z,99.99
2017-02-06T05:57:59.698Z,99.99
2017-02-06T05:58:40.210Z,99.99
2017-02-06T05:59:20.681Z,99.99
2017-02-06T06:00:01.209Z,99.99
2017-02-06T06:00:41.731Z,99.99
2017-02-06T06:01:22.312Z,99.99
2017-02-06T06:02:02.804Z,99.99
2017-02-06T06:02:43.313Z,99.99
2017-02-06T06:03:24.081Z,99.99
2017-02-06T06:04:04.473Z,99.99
2017-02-06T06:04:45.046Z,99.99
2017-02-06T06:05:25.568Z,99.99
2017-02-06T06:06:06.074Z,99.99
2017-02-06T06:06:46.577Z,99.99
2017-02-06T06:07:27.045Z,99.99
2017-02-06T06:08:07.574Z,99.99
2017-02-06T06:08:48.065Z,99.99
2017-02-06T06:09:28.581Z,99.99
2017-02-06T06:10:09.113Z,99.99
2017-02-06T06:10:49.615Z,99.99
2017-02-06T06:11:30.121Z,99.99
2017-02-06T06:12:10.639Z,99.99
2017-02-06T06:12:51.169Z,99.99
2017-02-06T06:13:31.691Z,99.99
2017-02-06T06:14:12.187Z,99.99
2017-02-06T06:14:52.695Z,99.99
2017-02-06T06:15:33.227Z,99.99
2017-02-06T06:16:13.716Z,99.99
2017-02-06T06:16:54.236Z,99.99
2017-02-06T06:17:34.767Z,99.99
2017-02-06T06:18:15.265Z,99.99
2017-02-06T06:18:55.791Z,99.99
2017-02-06T06:19:36.299Z,99.99
2017-02-06T06:20:16.818Z,99.99
2017-02-06T06:20:57.369Z,99.99
2017-02-06T06:21:37.882Z,99.99
2017-02-06T06:22:18.378Z,99.99
2017-02-06T06:22:58.880Z,99.99
2017-02-06T06:23:39.419Z,99.99
2017-02-06T06:24:19.903Z,99.99
2017-02-06T06:25:00.426Z,99.99
2017-02-06T06:25:40.948Z,99.99
2017-02-06T06:26:21.471Z,99.99
2017-02-06T06:27:02.002Z,99.99
2017-02-06T06:27:42.474Z,99.99
2017-02-06T06:28:22.976Z,99.99
2017-02-06T06:29:03.504Z,99.99
2017-02-06T06:29:44.004Z,99.99
2017-02-06T06:30:24.507Z,99.99
2017-02-06T06:31:05.020Z,99.99
2017-02-06T06:31:45.511Z,99.99
2017-02-06T06:32:26.032Z,99.99
2017-02-06T06:33:06.540Z,99.99
2017-02-06T06:33:47.052Z,99.99
2017-02-06T06:34:27.577Z,99.99
2017-02-06T06:35:08.095Z,99.99
2017-02-06T06:35:48.602Z,99.99
2017-02-06T06:36:29.124Z,99.99
2017-02-06T06:37:09.642Z,99.99
2017-02-06T06:37:50.167Z,99.99
2017-02-06T06:38:30.703Z,99.99
2017-02-06T06:39:11.173Z,99.99
2017-02-06T06:39:51.685Z,99.99
2017-02-06T06:40:32.201Z,99.99
2017-02-06T06:41:12.688Z,99.99
2017-02-06T06:41:53.196Z,99.99
2017-02-06T06:42:33.717Z,99.99
2017-02-06T06:43:14.219Z,99.99
2017-02-06T06:43:54.753Z,99.99
2017-02-06T06:44:35.256Z,99.99
2017-02-06T06:45:15.745Z,99.99
2017-02-06T06:45:56.255Z,99.99
2017-02-06T06:46:36.763Z,99.99
2017-02-06T06:47:17.284Z,99.99
2017-02-06T06:47:57.777Z,99.99
2017-02-06T06:48:38.295Z,99.99
2017-02-06T06:49:18.811Z,99.99
2017-02-06T06:49:59.343Z,99.99
2017-02-06T06:50:39.842Z,99.99
2017-02-06T06:51:20.349Z,99.99
2017-02-06T06:52:00.849Z,99.99
2017-02-06T06:52:41.348Z,99.99
2017-02-06T06:53:21.848Z,99.99
2017-02-06T06:54:02.347Z,99.99
2017-02-06T06:54:42.843Z,99.99
2017-02-06T06:55:23.346Z,99.99
2017-02-06T06:56:03.851Z,99.99
2017-02-06T06:56:44.378Z,99.99
2017-02-06T06:57:24.876Z,99.99
2017-02-06T06:58:05.396Z,99.99
2017-02-06T06:58:45.896Z,99.99
2017-02-06T06:59:26.407Z,99.99
2017-02-06T07:00:06.895Z,99.99
2017-02-06T07:00:47.387Z,99.99
2017-02-06T07:01:27.890Z,99.99
2017-02-06T07:02:08.396Z,99.99
2017-02-06T07:02:48.897Z,99.99
2017-02-06T07:03:29.421Z,99.99
2017-02-06T07:04:09.920Z,99.99
2017-02-06T07:04:50.451Z,99.99
2017-02-06T07:05:30.974Z,99.99
2017-02-06T07:06:11.492Z,99.99
2017-02-06T07:06:52.014Z,99.99
2017-02-06T07:07:32.519Z,99.99
2017-02-06T07:08:13.021Z,99.99
2017-02-06T07:08:53.556Z,99.99
2017-02-06T07:09:34.049Z,99.99
2017-02-06T07:10:14.593Z,99.99
2017-02-06T07:10:55.066Z,99.99
2017-02-06T07:11:35.575Z,99.99
2017-02-06T07:12:16.076Z,99.99
2017-02-06T07:12:56.588Z,99.99
2017-02-06T07:13:37.115Z,99.99
2017-02-06T07:14:17.612Z,99.99
2017-02-06T07:14:58.117Z,99.99
2017-02-06T07:15:38.682Z,99.99
2017-02-06T07:16:19.209Z,99.99
2017-02-06T07:16:59.715Z,99.99
2017-02-06T07:17:40.264Z,99.99
2017-02-06T07:18:20.774Z,99.99
2017-02-06T07:19:01.266Z,99.99
2017-02-06T07:19:41.792Z,99.99
2017-02-06T07:20:22.309Z,99.99
2017-02-06T07:21:02.799Z,99.99
2017-02-06T07:21:43.328Z,99.99
2017-02-06T07:22:23.842Z,99.99
2017-02-06T07:23:04.359Z,99.99
2017-02-06T07:23:44.858Z,99.99
2017-02-06T07:24:25.370Z,99.99
2017-02-06T07:25:05.901Z,99.99
2017-02-06T07:25:46.366Z,99.99
2017-02-06T07:26:26.858Z,99.99
2017-02-06T07:27:07.371Z,99.99
2017-02-06T07:27:47.869Z,99.99
2017-02-06T07:28:28.362Z,99.99
2017-02-06T07:29:08.889Z,99.99
2017-02-06T07:29:49.390Z,99.99
2017-02-06T07:30:29.894Z,99.99
2017-02-06T07:31:10.398Z,99.99
2017-02-06T07:31:50.920Z,99.99
2017-02-06T07:32:31.432Z,99.99
2017-02-06T07:33:11.939Z,99.99
2017-02-06T07:33:52.465Z,99.99
2017-02-06T07:34:32.967Z,99.99
2017-02-06T07:35:13.465Z,99.99
2017-02-06T07:35:53.987Z,99.99
2017-02-06T07:36:34.506Z,99.99
2017-02-06T07:37:15.021Z,99.99
2017-02-06T07:37:55.556Z,99.99
2017-02-06T07:38:36.054Z,99.99
2017-02-06T07:39:16.600Z,99.99
2017-02-06T07:39:57.087Z,99.99
2017-02-06T07:40:37.655Z,99.99
2017-02-06T07:41:18.218Z,99.99
2017-02-06T07:41:58.709Z,99.99
2017-02-06T07:42:39.222Z,99.99
2017-02-06T07:43:19.741Z,99.99
2017-02-06T07:44:00.322Z,99.99
2017-02-06T07:44:40.819Z,99.99
2017-02-06T07:45:21.347Z,99.99
2017-02-06T07:46:01.840Z,99.99
2017-02-06T07:46:42.354Z,99.99
2017-02-06T07:47:22.869Z,99.99
2017-02-06T07:48:03.388Z,99.99
2017-02-06T07:48:43.870Z,99.99
2017-02-06T07:49:24.370Z,99.99
2017-02-06T07:50:04.853Z,99.99
2017-02-06T07:50:45.358Z,99.99
2017-02-06T07:51:25.867Z,99.99
2017-02-06T07:52:06.401Z,99.99
2017-02-06T07:52:46.925Z,99.99
2017-02-06T07:53:27.452Z,99.99
2017-02-06T07:54:07.949Z,99.99
2017-02-06T07:54:48.509Z,99.99
2017-02-06T07:55:28.971Z,99.99
2017-02-06T07:56:09.481Z,99.99
2017-02-06T07:56:49.993Z,99.99
2017-02-06T07:57:30.517Z,99.99
2017-02-06T07:58:11.020Z,99.99
2017-02-06T07:58:51.522Z,99.99
2017-02-06T07:59:32.039Z,99.99
2017-02-06T08:00:12.543Z,99.99
2017-02-06T08:00:53.060Z,99.99
2017-02-06T08:01:33.553Z,99.99
2017-02-06T08:02:14.066Z,99.99
2017-02-06T08:02:54.584Z,99.99
2017-02-06T08:03:35.133Z,99.99
2017-02-06T08:04:15.663Z,99.99
2017-02-06T08:04:56.179Z,99.99
2017-02-06T08:05:36.698Z,99.99
2017-02-06T08:06:17.216Z,99.99
2017-02-06T08:06:57.727Z,99.99
2017-02-06T08:07:38.197Z,99.99
2017-02-06T08:08:18.715Z,99.99
2017-02-06T08:08:59.234Z,99.99
2017-02-06T08:09:39.721Z,99.99
2017-02-06T08:10:20.251Z,99.99
2017-02-06T08:11:00.757Z,99.99
2017-02-06T08:11:41.253Z,99.99
2017-02-06T08:12:21.773Z,99.99
2017-02-06T08:13:02.271Z,99.99
2017-02-06T08:13:42.796Z,99.99
2017-02-06T08:14:23.306Z,99.99
2017-02-06T08:15:03.807Z,99.99
2017-02-06T08:15:44.293Z,99.99
2017-02-06T08:16:24.798Z,99.99
2017-02-06T08:17:05.278Z,99.99
2017-02-06T08:17:45.795Z,99.99
2017-02-06T08:18:26.316Z,99.99
2017-02-06T08:19:06.890Z,99.99
2017-02-06T08:19:47.553Z,99.99
2017-02-06T08:20:28.035Z,99.99
2017-02-06T08:21:13.920Z,99.99
2017-02-06T08:21:54.432Z,99.99
2017-02-06T08:22:34.952Z,99.99
2017-02-06T08:23:15.483Z,99.99
2017-02-06T08:23:56.002Z,99.99
2017-02-06T08:24:36.492Z,99.99
2017-02-06T08:25:17.029Z,99.99
2017-02-06T08:25:57.526Z,99.99
2017-02-06T08:26:38.036Z,99.99
2017-02-06T08:27:18.527Z,99.99
2017-02-06T08:27:59.021Z,99.99
2017-02-06T08:28:39.529Z,99.99
2017-02-06T08:29:20.031Z,99.99
2017-02-06T08:30:00.548Z,99.99
2017-02-06T08:30:41.053Z,99.99
2017-02-06T08:31:21.551Z,99.99
2017-02-06T08:32:02.062Z,99.99
2017-02-06T08:32:42.560Z,99.99
2017-02-06T08:33:23.074Z,99.99
2017-02-06T08:34:03.579Z,99.99
2017-02-06T08:34:44.077Z,99.99
2017-02-06T08:35:24.594Z,99.99
2017-02-06T08:36:05.093Z,99.99
2017-02-06T08:36:45.649Z,99.99
2017-02-06T08:37:26.139Z,99.99
2017-02-06T08:38:06.643Z,99.99
2017-02-06T08:38:47.167Z,99.99
2017-02-06T08:39:27.687Z,99.99
2017-02-06T08:40:08.186Z,99.99
2017-02-06T08:40:48.722Z,99.99
2017-02-06T08:41:29.200Z,99.99
2017-02-06T08:42:09.712Z,99.99
2017-02-06T08:42:50.243Z,99.99
2017-02-06T08:43:30.766Z,99.99
2017-02-06T08:44:11.265Z,99.99
2017-02-06T08:44:51.793Z,99.99
2017-02-06T08:45:32.289Z,99.99
2017-02-06T08:46:12.819Z,99.99
2017-02-06T08:46:53.321Z,99.99
2017-02-06T08:47:33.835Z,99.99
2017-02-06T08:48:14.325Z,99.99
2017-02-06T08:48:54.829Z,99.99
2017-02-06T08:49:35.330Z,99.99
2017-02-06T08:50:15.858Z,99.99
2017-02-06T08:50:56.359Z,99.99
2017-02-06T08:51:36.850Z,99.99
2017-02-06T08:52:17.338Z,99.99
2017-02-06T08:52:57.863Z,99.99
2017-02-06T08:53:38.379Z,99.99
2017-02-06T08:54:18.893Z,99.99
2017-02-06T08:54:59.414Z,99.99
2017-02-06T08:55:39.956Z,99.99
2017-02-06T08:56:20.461Z,99.99
2017-02-06T08:57:00.966Z,99.99
2017-02-06T08:57:41.486Z,99.99
2017-02-06T08:58:21.987Z,99.99
2017-02-06T08:59:02.497Z,99.99
2017-02-06T08:59:43.030Z,99.99
2017-02-06T09:00:23.555Z,99.99
2017-02-06T09:01:04.094Z,99.99
2017-02-06T09:01:44.644Z,99.99
2017-02-06T09:02:25.198Z,99.99
2017-02-06T09:03:05.703Z,99.99
2017-02-06T09:03:46.191Z,99.99
2017-02-06T09:04:26.699Z,99.99
2017-02-06T09:05:07.210Z,99.99
2017-02-06T09:05:47.715Z,99.99
2017-02-06T09:06:28.249Z,99.99
2017-02-06T09:07:08.754Z,99.99
2017-02-06T09:07:49.239Z,99.99
2017-02-06T09:08:29.749Z,99.99
2017-02-06T09:09:10.269Z,99.99
2017-02-06T09:09:50.789Z,99.99
2017-02-06T09:10:31.298Z,99.99
2017-02-06T09:11:11.841Z,99.99
2017-02-06T09:11:52.379Z,99.99
2017-02-06T09:12:32.871Z,99.99
2017-02-06T09:13:13.379Z,99.99
2017-02-06T09:13:53.874Z,99.99
2017-02-06T09:14:34.385Z,99.99
2017-02-06T09:15:14.886Z,99.99
2017-02-06T09:15:55.401Z,99.99
2017-02-06T09:16:35.907Z,99.99
2017-02-06T09:17:16.412Z,99.99
2017-02-06T09:17:56.915Z,99.99
2017-02-06T09:18:37.413Z,99.99
2017-02-06T09:19:17.930Z,99.99
2017-02-06T09:19:58.440Z,99.99
2017-02-06T09:20:38.958Z,99.99
2017-02-06T09:21:19.492Z,99.99
2017-02-06T09:22:00.016Z,99.99
2017-02-06T09:22:40.549Z,99.99
2017-02-06T09:23:21.052Z,99.99
2017-02-06T09:24:01.568Z,99.99
2017-02-06T09:24:42.094Z,99.99
2017-02-06T09:25:22.594Z,99.99
2017-02-06T09:26:03.095Z,99.99
2017-02-06T09:26:43.604Z,99.99
2017-02-06T09:27:24.102Z,99.99
2017-02-06T09:28:04.633Z,99.99
2017-02-06T09:28:45.149Z,99.99
2017-02-06T09:29:25.665Z,99.99
2017-02-06T09:30:06.189Z,99.99
2017-02-06T09:30:46.680Z,99.99
2017-02-06T09:31:27.181Z,99.99
2017-02-06T09:32:07.708Z,99.99
2017-02-06T09:32:48.218Z,99.99
2017-02-06T09:33:28.710Z,99.99
2017-02-06T09:34:09.247Z,99.99
2017-02-06T09:34:49.767Z,99.99
2017-02-06T09:35:30.282Z,99.99
2017-02-06T09:36:10.789Z,99.99
2017-02-06T09:36:51.305Z,99.99
2017-02-06T09:37:31.807Z,99.99
2017-02-06T09:38:12.314Z,99.99
2017-02-06T09:38:52.818Z,99.99
2017-02-06T09:39:33.315Z,99.99
2017-02-06T09:40:13.847Z,99.99
2017-02-06T09:40:54.344Z,99.99
2017-02-06T09:41:34.870Z,99.99
2017-02-06T09:42:15.340Z,99.99
2017-02-06T09:42:55.833Z,99.99
2017-02-06T09:43:36.343Z,99.99
2017-02-06T09:44:16.863Z,99.99
2017-02-06T09:44:57.383Z,99.99
2017-02-06T09:45:37.876Z,99.99
2017-02-06T09:46:18.377Z,99.99
2017-02-06T09:46:58.881Z,99.99
2017-02-06T09:47:39.386Z,99.99
2017-02-06T09:48:19.893Z,99.99
2017-02-06T09:49:00.408Z,99.99
2017-02-06T09:49:40.918Z,99.99
2017-02-06T09:50:21.435Z,99.99
2017-02-06T09:51:01.931Z,99.99
2017-02-06T09:51:42.472Z,99.99
2017-02-06T09:52:23.004Z,99.99
2017-02-06T09:53:03.531Z,99.99
2017-02-06T09:53:44.016Z,99.99
2017-02-06T09:54:24.520Z,99.99
2017-02-06T09:55:05.018Z,99.99
2017-02-06T09:55:45.532Z,99.99
2017-02-06T09:56:26.020Z,99.99
2017-02-06T09:57:06.529Z,99.99
2017-02-06T09:57:47.040Z,99.99
2017-02-06T09:58:27.550Z,99.99
2017-02-06T09:59:08.064Z,99.99
2017-02-06T09:59:48.583Z,99.99
2017-02-06T10:00:29.095Z,99.99
2017-02-06T10:01:09.587Z,99.99
2017-02-06T10:01:50.106Z,99.99
2017-02-06T10:02:30.594Z,99.99
2017-02-06T10:03:11.120Z,99.99
2017-02-06T10:03:51.625Z,99.99
2017-02-06T10:04:32.128Z,99.99
2017-02-06T10:05:12.616Z,99.99
2017-02-06T10:05:53.136Z,99.99
2017-02-06T10:06:33.646Z,99.99
2017-02-06T10:07:14.145Z,99.99
2017-02-06T10:07:54.662Z,99.99
2017-02-06T10:08:35.173Z,99.99
2017-02-06T10:09:15.695Z,99.99
2017-02-06T10:09:56.213Z,99.99
2017-02-06T10:10:36.711Z,99.99
2017-02-06T10:11:17.199Z,99.99
2017-02-06T10:11:57.745Z,99.99
2017-02-06T10:12:38.247Z,99.99
2017-02-06T10:13:18.747Z,99.99
2017-02-06T10:13:59.245Z,99.99
2017-02-06T10:14:39.747Z,99.99
2017-02-06T10:15:20.255Z,99.99
2017-02-06T10:16:00.781Z,99.99
2017-02-06T10:16:41.284Z,99.99
2017-02-06T10:17:21.824Z,99.99
2017-02-06T10:18:02.329Z,99.99
2017-02-06T10:18:42.836Z,99.99
2017-02-06T10:19:23.336Z,99.99
2017-02-06T10:20:03.843Z,99.99
2017-02-06T10:20:44.348Z,99.99
2017-02-06T10:21:24.875Z,99.99
2017-02-06T10:22:05.362Z,99.99
2017-02-06T10:22:45.884Z,99.99
2017-02-06T10:23:26.397Z,99.99
2017-02-06T10:24:06.908Z,99.99
2017-02-06T10:24:47.421Z,99.99
2017-02-06T10:25:27.921Z,99.99
2017-02-06T10:26:08.452Z,99.99
2017-02-06T10:26:48.961Z,99.99
2017-02-06T10:27:29.469Z,99.99
2017-02-06T10:28:09.981Z,99.99
2017-02-06T10:28:50.476Z,99.99
2017-02-06T10:29:30.982Z,99.99
2017-02-06T10:30:11.474Z,99.99
2017-02-06T10:30:51.990Z,99.99
2017-02-06T10:31:32.497Z,99.99
2017-02-06T10:32:13.003Z,99.99
2017-02-06T10:32:53.502Z,99.99
2017-02-06T10:33:34.014Z,99.99
2017-02-06T10:34:14.521Z,99.99
2017-02-06T10:34:55.028Z,99.99
2017-02-06T10:35:35.534Z,99.99
2017-02-06T10:36:16.047Z,99.99
2017-02-06T10:36:56.532Z,99.99
2017-02-06T10:37:37.046Z,99.99
2017-02-06T10:38:17.568Z,99.99
2017-02-06T10:38:58.051Z,99.99
2017-02-06T10:39:38.557Z,99.99
2017-02-06T10:40:19.079Z,99.99
2017-02-06T10:40:59.589Z,99.99
2017-02-06T10:41:40.091Z,99.99
2017-02-06T10:42:20.594Z,99.99
2017-02-06T10:43:01.129Z,99.99
2017-02-06T10:43:41.665Z,99.99
2017-02-06T10:44:22.163Z,99.99
2017-02-06T10:45:02.683Z,99.99
2017-02-06T10:45:43.180Z,99.99
2017-02-06T10:46:23.688Z,99.99
2017-02-06T10:47:04.203Z,99.99
2017-02-06T10:47:44.676Z,99.99
2017-02-06T10:48:25.188Z,99.99
2017-02-06T10:49:05.694Z,99.99
2017-02-06T10:49:46.239Z,99.99
2017-02-06T10:50:26.748Z,99.99
2017-02-06T10:51:07.242Z,99.99
2017-02-06T10:51:47.750Z,99.99
2017-02-06T10:52:28.230Z,99.99
2017-02-06T10:53:08.748Z,99.99
2017-02-06T10:53:49.245Z,99.99
2017-02-06T10:54:29.761Z,99.99
2017-02-06T10:55:10.261Z,99.99
2017-02-06T10:55:50.756Z,99.99
2017-02-06T10:56:31.266Z,99.99
2017-02-06T10:57:11.758Z,99.99
2017-02-06T10:57:52.272Z,99.99
2017-02-06T10:58:32.755Z,99.99
2017-02-06T10:59:13.265Z,99.99
2017-02-06T10:59:53.788Z,99.99
2017-02-06T11:00:34.308Z,99.99
2017-02-06T11:01:14.811Z,99.99
2017-02-06T11:01:55.325Z,99.99
2017-02-06T11:02:35.834Z,99.99
2017-02-06T11:03:16.348Z,99.99
2017-02-06T11:03:56.880Z,99.99
2017-02-06T11:04:37.377Z,99.99
2017-02-06T11:05:17.899Z,99.99
2017-02-06T11:05:58.422Z,99.99
2017-02-06T11:06:38.951Z,99.99
2017-02-06T11:07:19.449Z,99.99
2017-02-06T11:07:59.960Z,99.99
2017-02-06T11:08:40.467Z,99.99
2017-02-06T11:09:20.977Z,99.99
2017-02-06T11:10:01.506Z,99.99
2017-02-06T11:10:41.993Z,99.99
2017-02-06T11:11:22.512Z,99.99
2017-02-06T11:12:03.014Z,99.99
2017-02-06T11:12:43.516Z,99.99
2017-02-06T11:13:24.043Z,99.99
2017-02-06T11:14:04.561Z,99.99
2017-02-06T11:14:45.047Z,99.91
2017-02-06T11:15:25.560Z,99.99
2017-02-06T11:16:06.070Z,99.99
2017-02-06T11:16:46.583Z,99.99
2017-02-06T11:17:27.093Z,99.99
2017-02-06T11:18:07.607Z,99.99
2017-02-06T11:18:48.121Z,99.99
2017-02-06T11:19:28.642Z,99.99
2017-02-06T11:20:09.205Z,99.99
2017-02-06T11:20:49.698Z,99.99
2017-02-06T11:21:30.208Z,99.99
2017-02-06T11:22:10.722Z,99.99
2017-02-06T11:22:51.257Z,99.99
2017-02-06T11:23:31.760Z,99.99
2017-02-06T11:24:12.287Z,99.99
2017-02-06T11:24:52.788Z,99.99
2017-02-06T11:25:33.310Z,99.99
2017-02-06T11:26:13.832Z,99.99
2017-02-06T11:26:54.346Z,99.99
2017-02-06T11:27:34.853Z,99.99
2017-02-06T11:28:15.385Z,99.99
2017-02-06T11:28:55.874Z,99.99
2017-02-06T11:29:36.404Z,99.99
2017-02-06T11:30:16.945Z,99.99
2017-02-06T11:30:57.424Z,99.99
2017-02-06T11:31:37.930Z,99.99
2017-02-06T11:32:18.462Z,99.99
2017-02-06T11:32:58.966Z,99.63
2017-02-06T11:33:39.479Z,99.82
2017-02-06T11:34:19.982Z,99.72
2017-02-06T11:35:00.507Z,99.72
2017-02-06T11:35:41.014Z,99.53
2017-02-06T11:36:21.529Z,99.99
2017-02-06T11:37:02.029Z,99.63
2017-02-06T11:37:42.529Z,99.82
2017-02-06T11:38:23.045Z,99.82
2017-02-06T11:39:03.565Z,99.53
2017-02-06T11:39:44.058Z,99.63
2017-02-06T11:40:24.559Z,99.72
2017-02-06T11:41:05.068Z,99.63
2017-02-06T11:41:45.561Z,99.91
2017-02-06T11:42:26.054Z,99.72
2017-02-06T11:43:06.562Z,99.53
2017-02-06T11:43:47.085Z,99.91
2017-02-06T11:44:27.589Z,99.99
2017-02-06T11:45:08.102Z,99.34
2017-02-06T11:45:48.599Z,99.44
2017-02-06T11:46:29.109Z,99.63
2017-02-06T11:47:09.619Z,99.25
2017-02-06T11:47:50.143Z,99.53
2017-02-06T11:48:30.650Z,99.06
2017-02-06T11:49:11.171Z,98.87
2017-02-06T11:49:51.671Z,99.34
2017-02-06T11:50:32.198Z,99.34
2017-02-06T11:51:12.678Z,99.87
2017-02-06T11:51:53.203Z,99.63
2017-02-06T11:52:33.706Z,99.39
2017-02-06T11:53:14.205Z,99.2
2017-02-06T11:53:54.712Z,99.39
2017-02-06T11:54:35.201Z,99.49
2017-02-06T11:55:15.714Z,98.92
2017-02-06T11:55:56.296Z,99.49
2017-02-06T11:56:36.816Z,99.3
2017-02-06T11:57:17.332Z,99.3
2017-02-06T11:57:57.850Z,99.39
2017-02-06T11:58:38.363Z,99.11
2017-02-06T11:59:18.884Z,99.3
2017-02-06T11:59:59.441Z,99.2
2017-02-06T12:00:39.948Z,99.11
2017-02-06T12:01:20.486Z,99.49
2017-02-06T12:02:00.973Z,98.25
2017-02-06T12:02:41.480Z,98.54
2017-02-06T12:03:22.005Z,99.39
2017-02-06T12:04:02.506Z,99.2
2017-02-06T12:04:43.024Z,99.49
2017-02-06T12:05:23.686Z,99.3
2017-02-06T12:06:04.242Z,99.39
2017-02-06T12:06:44.790Z,99.39
2017-02-06T12:07:25.305Z,98.44
2017-02-06T12:08:05.823Z,98.92
2017-02-06T12:08:46.328Z,98.16
2017-02-06T12:09:26.872Z,98.54
2017-02-06T12:10:07.409Z,98.92
2017-02-06T12:10:47.903Z,98.82
2017-02-06T12:11:28.425Z,98.63
2017-02-06T12:12:08.963Z,98.44
2017-02-06T12:12:49.486Z,99.01
2017-02-06T12:13:29.984Z,98.73
2017-02-06T12:14:10.498Z,99.01
2017-02-06T12:14:51.005Z,98.35
2017-02-06T12:15:31.509Z,98.35
2017-02-06T12:16:12.023Z,98.44
2017-02-06T12:16:52.529Z,98.92
2017-02-06T12:17:33.062Z,98.44
2017-02-06T12:18:13.565Z,98.73
2017-02-06T12:18:54.076Z,97.97
2017-02-06T12:19:34.574Z,97.97
2017-02-06T12:20:15.108Z,97.78
2017-02-06T12:20:55.611Z,97.78
2017-02-06T12:21:36.118Z,98.59
2017-02-06T12:22:16.598Z,98.02
2017-02-06T12:22:57.196Z,98.3
2017-02-06T12:23:37.800Z,98.16
2017-02-06T12:24:18.366Z,98.4
2017-02-06T12:24:58.860Z,97.45
2017-02-06T12:25:39.383Z,97.36
2017-02-06T12:26:19.898Z,97.02
2017-02-06T12:27:00.425Z,97.12
2017-02-06T12:27:40.960Z,97.12
2017-02-06T12:28:21.496Z,97.36
2017-02-06T12:29:02.017Z,97.69
2017-02-06T12:29:42.545Z,97.45
2017-02-06T12:30:23.050Z,97.36
2017-02-06T12:31:03.551Z,96.88
2017-02-06T12:31:44.048Z,96.92
2017-02-06T12:32:24.552Z,97.45
2017-02-06T12:33:05.063Z,96.41
2017-02-06T12:33:45.569Z,96.92
2017-02-06T12:34:26.077Z,97.02
2017-02-06T12:35:06.586Z,96.5
2017-02-06T12:35:47.118Z,96.59
2017-02-06T12:36:27.599Z,95.98
2017-02-06T12:37:08.140Z,95.98
2017-02-06T12:37:48.801Z,96.08
2017-02-06T12:38:29.861Z,96.26
2017-02-06T12:39:10.370Z,96.73
2017-02-06T12:39:50.876Z,95.93
2017-02-06T12:40:31.541Z,96.69
2017-02-06T12:41:12.032Z,96.73
2017-02-06T12:41:52.552Z,95.98
2017-02-06T12:42:33.053Z,95.98
2017-02-06T12:43:13.553Z,96.17
2017-02-06T12:43:54.070Z,95.88
2017-02-06T12:44:34.588Z,96.26
2017-02-06T12:45:15.086Z,96.36
2017-02-06T12:45:55.591Z,96.08
2017-02-06T12:46:36.120Z,95.6
2017-02-06T12:47:16.696Z,96.17
2017-02-06T12:47:57.204Z,96.17
2017-02-06T12:48:37.714Z,96.17
2017-02-06T12:49:18.208Z,96.17
2017-02-06T12:49:58.725Z,95.98
2017-02-06T12:50:39.234Z,96.45
2017-02-06T12:51:19.747Z,95.79
2017-02-06T12:52:01.073Z,96.08
2017-02-06T12:52:42.073Z,96.36
2017-02-06T12:53:23.246Z,95.88
2017-02-06T12:54:03.751Z,95.98
2017-02-06T12:54:44.266Z,95.88
2017-02-06T12:55:24.796Z,96.36
2017-02-06T12:56:05.341Z,95.98
2017-02-06T12:56:45.840Z,95.88
2017-02-06T12:57:26.344Z,96.12
2017-02-06T12:58:06.858Z,95.88
2017-02-06T12:58:47.392Z,95.93
2017-02-06T12:59:27.892Z,95.93
2017-02-06T13:00:08.400Z,96.03
2017-02-06T13:00:48.890Z,95.93
2017-02-06T13:01:29.404Z,96.31
2017-02-06T13:02:09.924Z,95.93
2017-02-06T13:02:50.430Z,95.74
2017-02-06T13:03:30.993Z,95.93
2017-02-06T13:04:11.466Z,96.03
2017-02-06T13:04:51.977Z,95.84
2017-02-06T13:05:32.473Z,96.41
2017-02-06T13:06:12.996Z,95.46
2017-02-06T13:06:53.507Z,95.93
2017-02-06T13:07:34.027Z,95.93
2017-02-06T13:08:14.526Z,96.5
2017-02-06T13:08:55.039Z,96.22
2017-02-06T13:09:35.545Z,96.03
2017-02-06T13:10:16.064Z,95.93
2017-02-06T13:10:56.559Z,96.22
2017-02-06T13:11:37.062Z,95.93
2017-02-06T13:12:17.570Z,95.93
2017-02-06T13:12:58.221Z,95.93
2017-02-06T13:13:38.730Z,96.22
2017-02-06T13:14:19.257Z,95.93
2017-02-06T13:14:59.795Z,96.12
2017-02-06T13:15:40.280Z,95.98
2017-02-06T13:16:20.836Z,96.17
2017-02-06T13:17:01.326Z,96.45
2017-02-06T13:17:43.571Z,95.79
2017-02-06T13:18:24.044Z,95.7
2017-02-06T13:19:04.566Z,95.6
2017-02-06T13:19:45.082Z,95.51
2017-02-06T13:20:25.595Z,94.74
2017-02-06T13:21:06.084Z,95.12
2017-02-06T13:21:46.562Z,94.84
2017-02-06T13:22:27.072Z,94.74
2017-02-06T13:23:07.638Z,94.56
2017-02-06T13:23:48.899Z,94.65
2017-02-06T13:24:29.407Z,94.93
2017-02-06T13:25:09.904Z,94.18
2017-02-06T13:25:50.424Z,93.8
2017-02-06T13:26:30.941Z,93.41
2017-02-06T13:27:11.454Z,93.04
2017-02-06T13:27:51.955Z,93.89
2017-02-06T13:28:32.507Z,93.89
2017-02-06T13:29:13.074Z,93.7
2017-02-06T13:29:53.565Z,94.08
2017-02-06T13:30:34.082Z,93.7
2017-02-06T13:31:14.617Z,94.08
2017-02-06T13:31:55.119Z,93.99
2017-02-06T13:32:35.644Z,94.56
2017-02-06T13:33:16.159Z,94.37
2017-02-06T13:33:56.787Z,93.99
2017-02-06T13:34:37.317Z,94.18
2017-02-06T13:35:17.856Z,93.51
2017-02-06T13:35:58.374Z,93.04
2017-02-06T13:36:38.951Z,93.32
2017-02-06T13:37:19.496Z,91.99
2017-02-06T13:37:59.976Z,92.56
2017-02-06T13:38:40.469Z,92.28
2017-02-06T13:39:20.967Z,92.37
2017-02-06T13:40:01.440Z,91.99
2017-02-06T13:40:41.928Z,92.28
2017-02-06T13:41:22.435Z,91.99
2017-02-06T13:42:02.940Z,93.51
2017-02-06T13:42:43.448Z,93.6
2017-02-06T13:43:23.949Z,93.51
2017-02-06T13:44:04.449Z,93.32
2017-02-06T13:44:44.956Z,93.23
2017-02-06T13:45:25.486Z,93.6
2017-02-06T13:46:06.006Z,93.13
2017-02-06T13:46:46.502Z,93.04
2017-02-06T13:47:27.008Z,93.32
2017-02-06T13:48:07.517Z,93.51
2017-02-06T13:48:48.035Z,92.09
2017-02-06T13:49:28.582Z,92.28
2017-02-06T13:50:09.060Z,92.75
2017-02-06T13:50:49.567Z,93.13
2017-02-06T13:51:30.053Z,92.75
2017-02-06T13:52:10.570Z,92.56
2017-02-06T13:52:51.091Z,92.66
2017-02-06T13:53:32.419Z,92.75
2017-02-06T13:54:14.868Z,92.66
2017-02-06T13:54:58.634Z,92.56
2017-02-06T13:55:39.197Z,92.18
2017-02-06T13:56:19.709Z,93.51
2017-02-06T13:57:00.205Z,93.23
2017-02-06T13:57:40.712Z,93.51
2017-02-06T13:58:21.206Z,93.32
2017-02-06T13:59:02.572Z,91.99
2017-02-06T13:59:43.085Z,93.51
2017-02-06T14:00:23.674Z,93.32
2017-02-06T14:01:04.134Z,93.23
2017-02-06T14:01:44.663Z,93.41
2017-02-06T14:02:27.665Z,93.23
2017-02-06T14:04:16.662Z,93.32
2017-02-06T14:04:57.136Z,93.7
2017-02-06T14:05:37.730Z,93.37
2017-02-06T14:06:20.014Z,93.27
2017-02-06T14:07:00.531Z,93.23
2017-02-06T14:07:41.057Z,93.37
2017-02-06T14:08:21.595Z,93.37
2017-02-06T14:09:02.135Z,93.37
2017-02-06T14:09:42.660Z,93.27
2017-02-06T14:10:23.178Z,92.99
2017-02-06T14:11:03.707Z,93.56
2017-02-06T14:11:44.255Z,93.46
2017-02-06T14:12:24.808Z,93.46
2017-02-06T14:13:05.290Z,93.46
2017-02-06T14:13:45.818Z,93.56
2017-02-06T14:14:26.386Z,93.27
2017-02-06T14:15:06.971Z,93.27